createdAt,value
2022-09-26T00:01:22.499Z,17.48
2022-09-26T00:03:55.229Z,20.70
2022-09-26T00:06:22.943Z,16.55
2022-09-26T00:08:50.936Z,15.90
2022-09-26T00:11:40.247Z,19.98
2022-09-26T00:14:12.762Z,20.70
2022-09-26T00:16:40.114Z,24.58
2022-09-26T00:19:08.005Z,26.05
2022-09-26T00:21:35.624Z,17.65
2022-09-26T00:24:03.664Z,18.85
2022-09-26T00:26:33.317Z,25.08
2022-09-26T00:29:04.712Z,14.18
2022-09-26T00:31:35.454Z,22.92
2022-09-26T00:34:03.276Z,27.65
2022-09-26T00:36:38.170Z,26.73
2022-09-26T00:39:07.940Z,22.13
2022-09-26T00:41:35.738Z,22.73
2022-09-26T00:44:03.307Z,20.05
2022-09-26T00:46:42.027Z,19.70
2022-09-26T00:49:14.986Z,16.73
2022-09-26T00:51:46.495Z,18.52
2022-09-26T00:54:17.231Z,15.93
2022-09-26T00:56:47.099Z,18.33
2022-09-26T00:59:27.870Z,21.95
2022-09-26T01:01:58.740Z,19.80
2022-09-26T01:04:28.419Z,23.95
2022-09-26T01:07:01.829Z,21.73
2022-09-26T01:09:29.562Z,18.67
2022-09-26T01:11:57.223Z,22.60
2022-09-26T01:14:25.066Z,21.05
2022-09-26T01:16:52.419Z,12.48
2022-09-26T01:19:22.164Z,16.37
2022-09-26T01:22:03.842Z,18.92
2022-09-26T01:25:01.725Z,12.18
2022-09-26T01:27:34.884Z,11.70
2022-09-26T01:30:23.475Z,11.77
2022-09-26T01:33:03.361Z,16.42
2022-09-26T01:36:20.149Z,10.73
2022-09-26T01:39:12.708Z,14.07
2022-09-26T01:41:55.460Z,12.77
2022-09-26T01:44:50.381Z,7.55
2022-09-26T01:47:37.514Z,14.70
2022-09-26T01:50:11.899Z,10.68
2022-09-26T01:52:45.470Z,13.38
2022-09-26T01:55:21.202Z,10.23
2022-09-26T01:58:07.519Z,14.18
2022-09-26T02:00:37.619Z,11.30
2022-09-26T02:03:10.284Z,12.73
2022-09-26T02:05:44.857Z,8.13
2022-09-26T02:08:24.402Z,14.00
2022-09-26T02:11:02.120Z,17.15
2022-09-26T02:13:37.291Z,10.35
2022-09-26T02:16:11.824Z,13.40
2022-09-26T02:18:50.875Z,12.23
2022-09-26T02:21:22.990Z,19.20
2022-09-26T02:23:52.171Z,13.98
2022-09-26T02:26:19.607Z,10.45
2022-09-26T02:28:47.439Z,13.52
2022-09-26T02:31:21.461Z,13.35
2022-09-26T02:33:52.619Z,13.35
2022-09-26T02:36:21.198Z,12.32
2022-09-26T02:38:48.395Z,12.10
2022-09-26T02:41:44.477Z,11.30
2022-09-26T02:44:15.128Z,11.70
2022-09-26T02:46:51.465Z,12.57
2022-09-26T02:49:59.994Z,7.97
2022-09-26T02:52:50.737Z,14.73
2022-09-26T02:55:23.670Z,11.25
2022-09-26T02:57:56.547Z,13.02
2022-09-26T03:00:32.664Z,15.10
2022-09-26T03:03:14.506Z,8.50
2022-09-26T03:05:44.021Z,14.45
2022-09-26T03:08:28.262Z,12.02
2022-09-26T03:10:59.883Z,21.40
2022-09-26T03:13:28.088Z,13.07
2022-09-26T03:15:58.814Z,11.25
2022-09-26T03:18:32.725Z,11.80
2022-09-26T03:20:59.972Z,13.88
2022-09-26T03:23:28.665Z,14.25
2022-09-26T03:26:04.943Z,11.27
2022-09-26T03:28:37.481Z,10.77
2022-09-26T03:31:05.028Z,12.23
2022-09-26T03:33:32.287Z,17.25
2022-09-26T03:36:00.210Z,15.80
2022-09-26T03:38:27.983Z,18.55
2022-09-26T03:40:57.166Z,17.50
2022-09-26T03:43:24.757Z,23.65
2022-09-26T03:45:51.721Z,17.05
2022-09-26T03:48:18.685Z,14.35
2022-09-26T03:50:45.910Z,16.20
2022-09-26T03:53:13.473Z,17.12
2022-09-26T03:55:40.683Z,14.52
2022-09-26T03:58:07.564Z,16.30
2022-09-26T04:00:34.906Z,14.15
2022-09-26T04:03:05.899Z,13.23
2022-09-26T04:05:32.784Z,15.52
2022-09-26T04:08:01.266Z,11.77
2022-09-26T04:10:28.124Z,9.23
2022-09-26T04:12:55.374Z,20.67
2022-09-26T04:15:22.279Z,14.25
2022-09-26T04:17:49.148Z,13.23
2022-09-26T04:20:16.113Z,21.83
2022-09-26T04:22:43.120Z,13.52
2022-09-26T04:25:10.322Z,10.60
2022-09-26T04:27:38.120Z,15.35
2022-09-26T04:30:05.611Z,20.40
2022-09-26T04:32:32.549Z,14.55
2022-09-26T04:34:59.483Z,13.93
2022-09-26T04:37:26.423Z,10.32
2022-09-26T04:39:53.265Z,12.00
2022-09-26T04:42:20.188Z,9.32
2022-09-26T04:44:48.351Z,8.15
2022-09-26T04:47:15.388Z,13.77
2022-09-26T04:49:43.078Z,6.57
2022-09-26T04:52:10.016Z,11.98
2022-09-26T04:54:37.484Z,15.00
2022-09-26T04:57:04.772Z,7.57
2022-09-26T04:59:31.707Z,9.80
2022-09-26T05:01:58.694Z,10.93
2022-09-26T05:04:27.748Z,6.87
2022-09-26T05:06:57.905Z,4.25
2022-09-26T05:09:25.357Z,3.22
2022-09-26T05:11:52.475Z,4.22
2022-09-26T05:14:19.387Z,6.50
2022-09-26T05:16:47.312Z,5.40
2022-09-26T05:19:14.595Z,8.05
2022-09-26T05:21:43.205Z,9.80
2022-09-26T05:24:28.613Z,3.97
2022-09-26T05:26:55.959Z,12.65
2022-09-26T05:29:22.896Z,5.90
2022-09-26T05:31:50.675Z,6.75
2022-09-26T05:34:20.136Z,7.22
2022-09-26T05:36:47.816Z,9.68
2022-09-26T05:39:33.515Z,7.78
2022-09-26T05:42:00.762Z,6.32
2022-09-26T05:44:28.435Z,6.97
2022-09-26T05:46:57.538Z,5.00
2022-09-26T05:49:25.319Z,2.62
2022-09-26T05:51:53.846Z,4.82
2022-09-26T05:54:20.868Z,2.28
2022-09-26T05:56:48.386Z,6.03
2022-09-26T05:59:15.520Z,4.20
2022-09-26T06:01:42.713Z,3.85
2022-09-26T06:04:10.844Z,5.53
2022-09-26T06:06:37.819Z,4.32
2022-09-26T06:09:07.308Z,4.00
2022-09-26T06:11:34.512Z,7.12
2022-09-26T06:14:01.627Z,4.15
2022-09-26T06:16:29.457Z,5.03
2022-09-26T06:18:56.671Z,3.92
2022-09-26T06:21:24.221Z,5.05
2022-09-26T06:23:51.443Z,7.03
2022-09-26T06:26:23.777Z,4.80
2022-09-26T06:28:59.886Z,5.12
2022-09-26T06:31:28.293Z,4.62
2022-09-26T06:33:55.588Z,7.25
2022-09-26T06:36:25.597Z,6.20
2022-09-26T06:38:54.973Z,4.35
2022-09-26T06:41:21.974Z,7.85
2022-09-26T06:43:50.026Z,4.68
2022-09-26T06:46:17.656Z,7.75
2022-09-26T06:48:44.674Z,1.92
2022-09-26T06:51:14.371Z,4.87
2022-09-26T06:53:42.991Z,5.05
2022-09-26T06:56:09.886Z,7.25
2022-09-26T06:58:37.372Z,4.93
2022-09-26T07:01:06.628Z,2.40
2022-09-26T07:03:33.706Z,3.78
2022-09-26T07:06:00.643Z,10.48
2022-09-26T07:14:02.470Z,6.47
2022-09-26T07:16:30.088Z,4.28
2022-09-26T07:18:57.855Z,11.50
2022-09-26T07:21:24.814Z,6.87
2022-09-26T07:23:56.389Z,9.40
2022-09-26T07:26:23.384Z,6.45
2022-09-26T07:28:54.546Z,9.95
2022-09-26T07:31:23.685Z,8.35
2022-09-26T07:33:50.874Z,6.87
2022-09-26T07:36:18.658Z,6.25
2022-09-26T07:38:48.660Z,7.40
2022-09-26T07:41:15.800Z,4.82
2022-09-26T07:44:30.307Z,8.85
2022-09-26T07:46:48.963Z,7.03
2022-09-26T07:49:34.436Z,3.67
2022-09-26T07:52:01.593Z,4.85
2022-09-26T07:54:31.137Z,6.78
2022-09-26T07:56:58.283Z,8.52
2022-09-26T07:59:25.292Z,5.07
2022-09-26T08:01:55.010Z,7.97
2022-09-26T08:04:22.149Z,7.97
2022-09-26T08:06:50.349Z,9.32
2022-09-26T08:09:17.301Z,7.07
2022-09-26T08:11:45.176Z,6.18
2022-09-26T08:14:12.129Z,5.50
2022-09-26T08:16:42.240Z,7.72
2022-09-26T08:19:17.240Z,5.22
2022-09-26T08:21:45.240Z,3.15
2022-09-26T08:24:12.319Z,7.95
2022-09-26T08:26:44.064Z,4.00
2022-09-26T08:29:12.448Z,6.28
2022-09-26T08:31:39.986Z,4.93
2022-09-26T08:34:08.390Z,3.28
2022-09-26T08:36:38.293Z,4.10
2022-09-26T08:39:05.691Z,11.27
2022-09-26T08:41:52.833Z,8.35
2022-09-26T08:44:45.715Z,10.63
2022-09-26T08:47:43.849Z,5.37
2022-09-26T08:50:42.143Z,4.47
2022-09-26T08:53:33.345Z,6.90
2022-09-26T08:56:03.881Z,5.53
2022-09-26T08:58:44.526Z,4.60
2022-09-26T09:01:24.872Z,6.37
2022-09-26T09:03:55.826Z,10.60
2022-09-26T09:06:23.445Z,4.82
2022-09-26T09:08:58.569Z,10.43
2022-09-26T09:11:37.321Z,7.55
2022-09-26T09:14:10.027Z,6.55
2022-09-26T09:16:37.031Z,3.92
2022-09-26T09:19:13.136Z,4.07
2022-09-26T09:22:01.587Z,6.20
2022-09-26T09:24:44.008Z,4.20
2022-09-26T09:27:54.689Z,5.25
2022-09-26T09:30:52.216Z,9.10
2022-09-26T09:33:37.335Z,4.47
2022-09-26T09:36:47.993Z,5.25
2022-09-26T09:39:41.946Z,7.03
2022-09-26T09:42:28.189Z,8.18
2022-09-26T09:45:06.717Z,9.57
2022-09-26T09:47:38.376Z,10.20
2022-09-26T09:50:16.830Z,3.75
2022-09-26T09:53:11.892Z,6.50
2022-09-26T09:56:13.390Z,4.50
2022-09-26T09:59:19.021Z,6.60
2022-09-26T10:01:54.874Z,5.53
2022-09-26T10:04:39.359Z,4.75
2022-09-26T10:07:06.494Z,4.72
2022-09-26T10:09:40.685Z,8.35
2022-09-26T10:12:17.144Z,5.55
2022-09-26T10:14:52.869Z,5.75
2022-09-26T10:17:21.635Z,4.78
2022-09-26T10:19:48.951Z,9.70
2022-09-26T10:22:26.152Z,6.68
2022-09-26T10:25:08.686Z,5.97
2022-09-26T10:27:41.144Z,5.05
2022-09-26T10:30:26.192Z,4.03
2022-09-26T10:32:56.840Z,4.03
2022-09-26T10:35:25.404Z,4.32
2022-09-26T10:38:05.673Z,3.03
2022-09-26T10:40:48.025Z,3.92
2022-09-26T10:43:31.160Z,5.65
2022-09-26T10:46:07.148Z,2.08
2022-09-26T10:48:50.125Z,4.22
2022-09-26T10:51:29.697Z,4.35
2022-09-26T10:54:23.097Z,4.70
2022-09-26T10:56:57.639Z,6.85
2022-09-26T10:59:29.010Z,6.43
2022-09-26T11:01:59.189Z,3.55
2022-09-26T11:04:48.373Z,4.32
2022-09-26T11:07:29.009Z,4.70
2022-09-26T11:10:02.303Z,1.80
2022-09-26T11:12:31.681Z,2.65
2022-09-26T11:15:10.227Z,1.83
2022-09-26T11:17:51.859Z,3.15
2022-09-26T11:20:27.864Z,3.53
2022-09-26T11:23:13.797Z,4.93
2022-09-26T11:25:47.867Z,5.22
2022-09-26T11:28:23.883Z,6.53
2022-09-26T11:30:56.669Z,4.60
2022-09-26T11:33:24.734Z,5.60
2022-09-26T11:36:07.507Z,7.80
2022-09-26T11:38:55.605Z,7.15
2022-09-26T11:41:42.222Z,5.45
2022-09-26T11:44:30.483Z,6.40
2022-09-26T11:47:05.762Z,5.43
2022-09-26T11:49:38.693Z,4.95
2022-09-26T11:52:44.389Z,7.97
2022-09-26T11:55:40.589Z,7.15
2022-09-26T11:58:14.995Z,8.63
2022-09-26T12:00:55.957Z,6.72
2022-09-26T12:03:27.768Z,6.65
2022-09-26T12:06:02.840Z,10.35
2022-09-26T12:09:03.594Z,3.83
2022-09-26T12:11:37.007Z,6.68
2022-09-26T12:14:18.813Z,9.90
2022-09-26T12:17:05.600Z,6.20
2022-09-26T12:19:55.797Z,7.12
2022-09-26T12:22:38.024Z,7.10
2022-09-26T12:25:37.275Z,7.68
2022-09-26T12:28:57.793Z,5.62
2022-09-26T12:31:43.752Z,11.43
2022-09-26T12:34:28.753Z,6.70
2022-09-26T12:37:14.591Z,5.22
2022-09-26T12:40:10.769Z,6.25
2022-09-26T12:42:48.703Z,6.62
2022-09-26T12:45:18.411Z,6.87
2022-09-26T12:47:49.002Z,5.22
2022-09-26T12:50:25.437Z,6.78
2022-09-26T12:52:55.381Z,5.20
2022-09-26T12:55:51.827Z,5.57
2022-09-26T12:58:43.614Z,8.00
2022-09-26T13:01:13.575Z,7.07
2022-09-26T13:03:44.033Z,4.45
2022-09-26T13:06:38.408Z,2.62
2022-09-26T13:09:44.339Z,2.83
2022-09-26T13:12:20.633Z,4.10
2022-09-26T13:15:15.073Z,2.42
2022-09-26T13:17:47.897Z,1.50
2022-09-26T13:20:37.941Z,5.07
2022-09-26T13:23:38.675Z,2.40
2022-09-26T13:26:14.944Z,3.35
2022-09-26T13:29:16.292Z,3.92
2022-09-26T13:31:58.884Z,4.20
2022-09-26T13:34:38.917Z,6.47
2022-09-26T13:37:19.646Z,4.40
2022-09-26T13:39:49.694Z,5.30
2022-09-26T13:42:24.469Z,4.70
2022-09-26T13:45:36.414Z,8.93
2022-09-26T13:48:20.892Z,8.40
2022-09-26T13:50:55.646Z,7.70
2022-09-26T13:53:28.918Z,7.28
2022-09-26T13:56:34.146Z,6.43
2022-09-26T13:59:14.524Z,10.38
2022-09-26T14:02:16.085Z,12.48
2022-09-26T14:04:44.872Z,9.68
2022-09-26T14:07:49.774Z,11.82
2022-09-26T14:10:41.806Z,12.75
2022-09-26T14:13:36.922Z,9.25
2022-09-26T14:16:28.837Z,11.88
2022-09-26T14:18:58.491Z,14.05
2022-09-26T14:21:33.970Z,11.02
2022-09-26T14:24:38.189Z,11.77
2022-09-26T14:27:13.758Z,11.40
2022-09-26T14:29:44.706Z,8.68
2022-09-26T14:32:23.516Z,6.95
2022-09-26T14:34:54.023Z,12.25
2022-09-26T14:37:24.296Z,7.62
2022-09-26T14:40:30.157Z,9.38
2022-09-26T14:43:02.908Z,11.32
2022-09-26T14:46:00.312Z,12.82
2022-09-26T14:48:40.532Z,10.82
2022-09-26T14:51:20.734Z,15.25
2022-09-26T14:53:47.610Z,14.65
2022-09-26T14:56:17.959Z,13.45
2022-09-26T14:58:47.367Z,13.48
2022-09-26T15:01:18.931Z,12.55
2022-09-26T15:04:15.253Z,9.48
2022-09-26T15:06:46.447Z,10.85
2022-09-26T15:09:22.689Z,8.35
2022-09-26T15:12:04.009Z,15.40
2022-09-26T15:14:48.893Z,8.00
2022-09-26T15:17:39.004Z,11.00
2022-09-26T15:20:08.983Z,9.18
2022-09-26T15:22:35.956Z,7.55
2022-09-26T15:25:23.538Z,8.27
2022-09-26T15:27:54.215Z,7.20
2022-09-26T15:30:33.123Z,14.15
2022-09-26T15:33:04.183Z,9.15
2022-09-26T15:35:32.313Z,7.80
2022-09-26T15:38:09.674Z,5.78
2022-09-26T15:40:36.794Z,7.30
2022-09-26T15:43:09.803Z,7.28
2022-09-26T15:45:46.528Z,6.30
2022-09-26T15:48:19.714Z,7.20
2022-09-26T15:50:56.887Z,10.48
2022-09-26T15:53:39.620Z,11.02
2022-09-26T15:56:10.951Z,9.38
2022-09-26T15:58:37.792Z,8.20
2022-09-26T16:01:05.964Z,7.62
2022-09-26T16:04:13.429Z,7.70
2022-09-26T16:06:52.705Z,8.57
2022-09-26T16:09:35.513Z,11.02
2022-09-26T16:12:16.599Z,10.30
2022-09-26T16:14:49.514Z,11.65
2022-09-26T16:17:37.565Z,11.30
2022-09-26T16:20:25.421Z,9.55
2022-09-26T16:23:04.006Z,8.13
2022-09-26T16:25:35.156Z,5.05
2022-09-26T16:28:20.839Z,9.30
2022-09-26T16:30:59.568Z,8.93
2022-09-26T16:33:40.740Z,6.30
2022-09-26T16:36:26.132Z,10.27
2022-09-26T16:38:58.862Z,7.47
2022-09-26T16:44:35.349Z,13.48
2022-09-26T16:47:06.275Z,9.68
2022-09-26T16:49:45.809Z,11.95
2022-09-26T16:52:31.242Z,8.32
2022-09-26T16:55:00.641Z,6.03
2022-09-26T16:57:31.293Z,7.93
2022-09-26T17:00:20.036Z,10.55
2022-09-26T17:02:47.018Z,7.60
2022-09-26T17:05:20.284Z,2.67
2022-09-26T17:07:48.899Z,8.52
2022-09-26T17:10:17.706Z,8.32
2022-09-26T17:12:49.301Z,7.25
2022-09-26T17:15:27.379Z,9.90
2022-09-26T17:17:55.234Z,3.85
2022-09-26T17:20:22.626Z,7.87
2022-09-26T17:22:50.080Z,7.47
2022-09-26T17:25:18.918Z,6.87
2022-09-26T17:27:49.816Z,6.22
2022-09-26T17:30:19.232Z,10.80
2022-09-26T17:32:51.239Z,6.90
2022-09-26T17:35:29.642Z,11.93
2022-09-26T17:37:56.835Z,5.40
2022-09-26T17:40:29.550Z,11.40
2022-09-26T17:42:58.058Z,5.85
2022-09-26T17:45:32.258Z,9.05
2022-09-26T17:48:14.898Z,9.30
2022-09-26T17:50:42.944Z,12.32
2022-09-26T17:53:20.728Z,11.00
2022-09-26T17:55:48.574Z,6.57
2022-09-26T17:58:16.091Z,10.68
2022-09-26T18:00:43.727Z,6.87
2022-09-26T18:03:21.530Z,12.68
2022-09-26T18:05:48.555Z,7.78
2022-09-26T18:08:27.186Z,8.48
2022-09-26T18:11:18.571Z,8.25
2022-09-26T18:13:55.429Z,5.30
2022-09-26T18:16:23.389Z,5.50
2022-09-26T18:18:51.191Z,7.30
2022-09-26T18:21:19.067Z,6.65
2022-09-26T18:23:55.715Z,12.52
2022-09-26T18:26:42.193Z,4.72
2022-09-26T18:29:13.607Z,4.18
2022-09-26T18:31:41.865Z,6.10
2022-09-26T18:34:19.982Z,7.55
2022-09-26T18:36:48.935Z,5.75
2022-09-26T18:39:16.098Z,3.60
2022-09-26T18:41:45.156Z,6.57
2022-09-26T18:44:20.365Z,11.63
2022-09-26T18:46:49.241Z,4.65
2022-09-26T18:49:17.436Z,6.15
2022-09-26T18:51:45.888Z,8.77
2022-09-26T18:54:17.357Z,5.78
2022-09-26T18:57:03.073Z,6.18
2022-09-26T18:59:31.244Z,4.43
2022-09-26T19:02:00.114Z,9.55
2022-09-26T19:04:27.596Z,5.50
2022-09-26T19:07:06.054Z,6.97
2022-09-26T19:09:35.473Z,5.80
2022-09-26T19:12:03.685Z,6.57
2022-09-26T19:14:31.925Z,8.90
2022-09-26T19:16:59.415Z,5.53
2022-09-26T19:19:28.636Z,7.68
2022-09-26T19:22:03.383Z,8.70
2022-09-26T19:24:35.801Z,5.90
2022-09-26T19:27:11.087Z,4.72
2022-09-26T19:29:43.551Z,2.17
2022-09-26T19:32:22.858Z,4.93
2022-09-26T19:34:56.812Z,6.20
2022-09-26T19:37:23.744Z,7.62
2022-09-26T19:39:50.692Z,4.15
2022-09-26T19:42:17.674Z,7.07
2022-09-26T19:44:44.784Z,5.80
2022-09-26T19:47:17.752Z,3.80
2022-09-26T19:49:50.674Z,6.03
2022-09-26T19:52:20.002Z,4.40
2022-09-26T19:54:47.412Z,7.03
2022-09-26T19:57:16.408Z,7.87
2022-09-26T19:59:43.384Z,7.80
2022-09-26T20:02:33.750Z,4.25
2022-09-26T20:05:00.766Z,2.70
2022-09-26T20:07:27.760Z,6.22
2022-09-26T20:09:55.071Z,7.35
2022-09-26T20:12:22.028Z,10.77
2022-09-26T20:14:48.963Z,7.25
2022-09-26T20:17:24.283Z,5.62
2022-09-26T20:19:57.783Z,6.05
2022-09-26T20:22:26.075Z,11.73
2022-09-26T20:24:56.848Z,7.37
2022-09-26T20:27:27.998Z,6.53
2022-09-26T20:30:14.616Z,9.07
2022-09-26T20:32:42.225Z,4.57
2022-09-26T20:35:15.636Z,6.68
2022-09-26T20:37:43.933Z,7.82
2022-09-26T20:40:19.486Z,7.35
2022-09-26T20:42:50.447Z,8.68
2022-09-26T20:45:22.518Z,8.30
2022-09-26T20:47:49.518Z,13.15
2022-09-26T20:50:19.232Z,9.50
2022-09-26T20:52:46.268Z,5.32
2022-09-26T20:55:18.204Z,12.02
2022-09-26T20:57:45.899Z,11.18
2022-09-26T21:00:17.908Z,7.07
2022-09-26T21:02:47.418Z,8.77
2022-09-26T21:05:24.567Z,5.87
2022-09-26T21:07:52.417Z,7.40
2022-09-26T21:10:31.018Z,6.50
2022-09-26T21:12:59.119Z,9.80
2022-09-26T21:15:30.996Z,4.97
2022-09-26T21:17:58.862Z,5.82
2022-09-26T21:20:31.714Z,11.30
2022-09-26T21:23:01.321Z,8.35
2022-09-26T21:25:32.566Z,6.30
2022-09-26T21:28:03.326Z,11.00
2022-09-26T21:30:30.988Z,6.82
2022-09-26T21:33:00.246Z,8.23
2022-09-26T21:35:32.020Z,8.07
2022-09-26T21:38:01.360Z,6.82
2022-09-26T21:40:32.599Z,7.18
2022-09-26T21:43:06.876Z,9.10
2022-09-26T21:45:34.187Z,7.20
2022-09-26T21:48:01.273Z,9.60
2022-09-26T21:50:29.199Z,4.03
2022-09-26T21:53:09.146Z,8.60
2022-09-26T21:55:39.342Z,4.00
2022-09-26T21:58:13.088Z,8.25
2022-09-26T22:00:40.813Z,2.85
2022-09-26T22:03:07.712Z,5.57
2022-09-26T22:05:34.629Z,9.18
2022-09-26T22:08:01.967Z,4.25
2022-09-26T22:10:29.467Z,4.78
2022-09-26T22:12:56.801Z,13.90
2022-09-26T22:15:23.724Z,6.57
2022-09-26T22:17:51.330Z,9.13
2022-09-26T22:20:18.301Z,4.35
2022-09-26T22:22:45.232Z,6.95
2022-09-26T22:25:12.509Z,10.18
2022-09-26T22:27:39.687Z,7.95
2022-09-26T22:30:07.784Z,10.88
2022-09-26T22:32:34.792Z,7.32
2022-09-26T22:35:01.789Z,7.07
2022-09-26T22:37:28.698Z,4.28
2022-09-26T22:39:55.648Z,8.35
2022-09-26T22:42:22.656Z,6.40
2022-09-26T22:44:49.584Z,6.50
2022-09-26T22:47:16.569Z,5.22
2022-09-26T22:49:43.457Z,6.30
2022-09-26T22:52:10.376Z,4.82
2022-09-26T22:54:37.387Z,7.22
2022-09-26T22:57:04.410Z,4.95
2022-09-26T22:59:31.289Z,6.18
2022-09-26T23:01:58.259Z,9.40
2022-09-26T23:04:45.295Z,8.82
2022-09-26T23:07:12.745Z,6.87
2022-09-26T23:09:40.047Z,5.87
2022-09-26T23:12:07.677Z,6.30
2022-09-26T23:14:34.682Z,7.95
2022-09-26T23:17:01.802Z,6.85
2022-09-26T23:19:28.920Z,5.85
2022-09-26T23:21:55.880Z,5.45
2022-09-26T23:24:22.802Z,6.28
2022-09-26T23:26:49.764Z,6.07
2022-09-26T23:29:16.870Z,2.92
2022-09-26T23:31:43.933Z,5.60
2022-09-26T23:34:11.861Z,5.53
2022-09-26T23:36:38.734Z,6.95
2022-09-26T23:39:05.799Z,7.10
2022-09-26T23:41:32.697Z,5.97
2022-09-26T23:43:59.683Z,5.18
2022-09-26T23:46:26.722Z,4.50
2022-09-26T23:48:54.172Z,7.62
2022-09-26T23:51:21.168Z,7.20
2022-09-26T23:53:48.698Z,4.47
2022-09-26T23:56:16.391Z,5.45
2022-09-26T23:58:43.976Z,8.38
